Time;durP1;ratioP1;P1;durP2;ratioP2;P2;SDS_P1;SDS_P2;PMS_P1;PMS_P2;Temp;Humidity;BMP_temperature;BMP_pressure;BME280_temperature;BME280_humidity;BME280_pressure;Samples;Min_cycle;Max_cycle;Signal;HPM_P1;HPM_P2
2022/11/29 00:01:12;;;;;;;12.82;6.20;;;3.70;99.90;;;;;;5071397;28;20101;-47
2022/11/29 00:03:39;;;;;;;13.35;5.68;;;3.70;99.90;;;;;;5071068;28;20064;-48
2022/11/29 00:06:08;;;;;;;15.02;5.65;;;3.60;99.90;;;;;;5071402;28;20052;-48
2022/11/29 00:08:35;;;;;;;10.32;4.07;;;3.70;99.90;;;;;;5070731;28;20076;-47
2022/11/29 00:11:04;;;;;;;11.38;5.13;;;3.60;99.90;;;;;;5075723;28;20082;-47
2022/11/29 00:13:31;;;;;;;9.00;4.25;;;3.60;99.90;;;;;;5076124;28;20063;-48
2022/11/29 00:16:06;;;;;;;8.27;4.47;;;3.60;99.90;;;;;;5071107;28;20045;-47
2022/11/29 00:18:33;;;;;;;12.00;5.10;;;3.70;99.90;;;;;;5071121;28;20037;-51
2022/11/29 00:21:03;;;;;;;13.38;5.22;;;3.70;99.90;;;;;;5078500;28;20097;-47
2022/11/29 00:23:30;;;;;;;8.35;4.65;;;3.70;99.90;;;;;;5079324;28;20060;-48
2022/11/29 00:26:06;;;;;;;11.40;5.05;;;3.80;99.90;;;;;;5070676;28;20048;-48
2022/11/29 00:28:34;;;;;;;9.30;5.07;;;3.80;99.90;;;;;;5074991;28;20079;-47
2022/11/29 00:31:18;;;;;;;16.73;6.28;;;3.80;99.90;;;;;;5069959;28;20098;-49
2022/11/29 00:33:46;;;;;;;12.25;5.97;;;3.80;99.90;;;;;;5070113;28;20032;-47
2022/11/29 00:36:13;;;;;;;15.00;6.88;;;3.80;99.90;;;;;;5071364;28;20045;-48
2022/11/29 00:38:40;;;;;;;13.63;7.43;;;3.90;99.90;;;;;;5083630;28;20040;-47
2022/11/29 00:41:07;;;;;;;18.65;6.95;;;3.90;99.90;;;;;;5075763;28;20453;-47
2022/11/29 00:43:35;;;;;;;14.15;6.03;;;3.90;99.90;;;;;;5072118;28;20044;-47
2022/11/29 00:46:02;;;;;;;17.08;7.28;;;3.90;99.90;;;;;;5071050;28;20044;-48
2022/11/29 00:48:29;;;;;;;;;;;4.00;99.90;;;;;;5071733;28;20048;-47
2022/11/29 00:50:55;;;;;;;15.43;7.57;;;4.00;99.90;;;;;;5070982;28;20035;-48
2022/11/29 00:53:22;;;;;;;22.42;8.05;;;4.00;99.90;;;;;;5082225;28;20048;-47
2022/11/29 00:55:52;;;;;;;24.52;8.90;;;4.00;99.90;;;;;;5091309;28;20036;-47
2022/11/29 00:58:20;;;;;;;19.58;8.45;;;4.00;99.90;;;;;;5091069;28;20135;-49
2022/11/29 01:00:48;;;;;;;14.25;6.30;;;3.90;99.90;;;;;;5089392;28;20047;-47
2022/11/29 01:03:15;;;;;;;14.70;5.57;;;3.90;99.90;;;;;;5090669;28;20079;-48
2022/11/29 01:05:43;;;;;;;14.02;6.20;;;3.90;99.90;;;;;;5090560;28;20453;-47
2022/11/29 01:08:10;;;;;;;;;;;3.80;99.90;;;;;;5091717;28;20547;-47
2022/11/29 01:10:37;;;;;;;12.40;5.72;;;3.80;99.90;;;;;;5090677;28;19952;-48
2022/11/29 01:13:04;;;;;;;14.90;6.45;;;3.80;99.90;;;;;;5081956;28;20085;-47
2022/11/29 01:15:30;;;;;;;10.98;6.30;;;3.80;99.90;;;;;;5081389;28;20043;-47
2022/11/29 01:17:58;;;;;;;13.40;5.60;;;3.80;99.90;;;;;;5071179;28;20040;-50
2022/11/29 01:20:24;;;;;;;12.48;5.70;;;3.90;99.90;;;;;;5069252;28;20044;-48
2022/11/29 01:22:51;;;;;;;6.85;4.00;;;3.90;99.90;;;;;;5069858;28;20052;-47
2022/11/29 01:25:18;;;;;;;12.30;5.22;;;3.90;99.90;;;;;;5070683;28;20076;-47
2022/11/29 01:27:46;;;;;;;11.38;6.03;;;4.00;99.90;;;;;;5083698;28;20056;-47
2022/11/29 01:30:13;;;;;;;8.27;5.00;;;4.00;99.90;;;;;;5088975;28;20078;-48
2022/11/29 01:32:40;;;;;;;11.85;5.65;;;4.00;99.90;;;;;;5089265;28;20040;-48
2022/11/29 01:35:07;;;;;;;11.73;5.75;;;4.00;99.90;;;;;;5072101;28;20558;-47
2022/11/29 01:37:34;;;;;;;10.63;5.60;;;4.00;99.90;;;;;;5069941;28;20075;-49
2022/11/29 01:40:01;;;;;;;14.43;5.85;;;4.00;99.90;;;;;;5071044;28;20076;-47
2022/11/29 01:42:28;;;;;;;13.32;5.35;;;4.10;99.90;;;;;;5079344;28;20060;-48
2022/11/29 01:45:06;;;;;;;11.50;5.53;;;4.00;99.90;;;;;;5082716;28;20412;-48
2022/11/29 01:47:41;;;;;;;13.60;7.05;;;4.00;99.90;;;;;;5091102;28;20052;-47
2022/11/29 01:50:08;;;;;;;12.32;5.68;;;3.90;99.90;;;;;;5090467;28;20044;-49
2022/11/29 01:52:35;;;;;;;11.68;6.30;;;3.90;99.90;;;;;;5080113;28;20048;-48
2022/11/29 01:55:06;;;;;;;11.13;6.00;;;3.80;99.90;;;;;;5070710;28;20563;-47
2022/11/29 01:57:35;;;;;;;12.02;5.90;;;3.80;99.90;;;;;;5070462;28;20040;-48
2022/11/29 02:00:11;;;;;;;13.23;5.70;;;3.80;99.90;;;;;;5071242;28;20040;-47
2022/11/29 02:03:10;;;;;;;10.05;5.25;;;3.80;99.90;;;;;;5071273;28;20058;-47
2022/11/29 02:05:40;;;;;;;12.07;5.45;;;3.90;99.90;;;;;;5056935;28;20053;-48
2022/11/29 02:08:09;;;;;;;11.15;4.93;;;3.90;99.90;;;;;;5073961;28;20074;-47
2022/11/29 02:10:54;;;;;;;10.48;6.10;;;3.90;99.90;;;;;;5074008;28;20079;-50
2022/11/29 02:13:46;;;;;;;15.10;6.18;;;3.90;99.90;;;;;;5072829;28;20493;-48
2022/11/29 02:16:13;;;;;;;14.60;6.47;;;3.90;99.90;;;;;;5079070;28;20075;-48
2022/11/29 02:19:02;;;;;;;14.90;6.93;;;3.80;99.90;;;;;;5085858;28;20040;-47
2022/11/29 02:21:50;;;;;;;15.80;6.82;;;3.80;99.90;;;;;;5093970;28;20047;-47
2022/11/29 02:24:54;;;;;;;19.73;7.60;;;3.80;99.90;;;;;;5094421;28;20107;-48
2022/11/29 02:27:46;;;;;;;12.63;7.13;;;3.80;99.90;;;;;;5091096;28;20119;-47
2022/11/29 02:30:30;;;;;;;18.33;8.18;;;3.80;99.90;;;;;;5091857;28;20079;-46
2022/11/29 02:33:14;;;;;;;16.48;8.18;;;3.80;99.90;;;;;;5085574;28;20059;-48
2022/11/29 02:36:00;;;;;;;16.70;8.55;;;3.80;99.90;;;;;;5073690;28;20090;-47
2022/11/29 02:38:46;;;;;;;18.60;8.90;;;3.80;99.90;;;;;;5073080;28;20528;-47
2022/11/29 02:41:30;;;;;;;21.52;9.07;;;3.70;99.90;;;;;;5074030;28;20052;-47
2022/11/29 02:44:28;;;;;;;23.05;9.55;;;3.70;99.90;;;;;;5075000;28;20075;-49
2022/11/29 02:47:04;;;;;;;19.85;9.65;;;3.70;99.90;;;;;;5072549;28;20527;-47
2022/11/29 02:49:40;;;;;;;19.75;8.98;;;3.80;99.90;;;;;;5078531;28;20082;-47
2022/11/29 02:52:15;;;;;;;18.42;8.65;;;3.80;99.90;;;;;;5072851;28;20072;-47
2022/11/29 02:54:59;;;;;;;17.92;8.73;;;3.80;99.90;;;;;;5072607;28;20127;-47
2022/11/29 02:58:07;;;;;;;21.45;9.73;;;3.80;99.90;;;;;;5073406;28;20044;-47
2022/11/29 03:00:40;;;;;;;16.80;9.00;;;3.90;99.90;;;;;;5013964;28;20072;-48
2022/11/29 03:03:30;;;;;;;17.98;8.73;;;3.80;99.90;;;;;;5093139;28;20074;-47
2022/11/29 03:06:34;;;;;;;18.55;9.90;;;3.80;99.90;;;;;;5093575;28;20128;-47
2022/11/29 03:09:19;;;;;;;20.95;8.95;;;3.80;99.90;;;;;;5091099;28;20078;-47
2022/11/29 03:11:55;;;;;;;27.08;9.50;;;3.80;99.90;;;;;;5079935;28;20451;-47
2022/11/29 03:14:29;;;;;;;20.92;9.73;;;3.80;99.90;;;;;;5072338;28;20072;-47
2022/11/29 03:17:16;;;;;;;17.05;9.15;;;3.80;99.90;;;;;;5076764;28;20071;-48
2022/11/29 03:20:07;;;;;;;23.58;10.10;;;3.80;99.90;;;;;;5086654;28;20044;-47
2022/11/29 03:23:01;;;;;;;23.02;9.68;;;3.70;99.90;;;;;;5082271;28;20070;-48
2022/11/29 03:25:44;;;;;;;19.98;10.40;;;3.80;99.90;;;;;;5084663;28;20078;-48
2022/11/29 03:28:26;;;;;;;21.00;10.02;;;3.80;99.90;;;;;;5092029;28;20071;-48
2022/11/29 03:31:28;;;;;;;17.90;9.77;;;3.80;99.90;;;;;;5091404;28;20067;-49
2022/11/29 03:34:24;;;;;;;21.08;10.00;;;3.80;99.90;;;;;;5048961;28;20102;-48
2022/11/29 03:37:03;;;;;;;19.85;9.88;;;3.90;99.90;;;;;;5059618;28;20052;-47
2022/11/29 03:39:50;;;;;;;23.08;10.68;;;3.90;99.90;;;;;;5080290;28;20032;-47
2022/11/29 03:42:24;;;;;;;19.17;9.57;;;3.90;99.90;;;;;;5083137;28;20849;-48
2022/11/29 03:45:06;;;;;;;21.75;10.18;;;3.90;99.90;;;;;;5092336;28;20063;-48
2022/11/29 03:47:45;;;;;;;20.85;9.65;;;3.90;99.90;;;;;;5075189;28;20504;-49
2022/11/29 03:50:18;;;;;;;20.17;10.60;;;3.90;99.90;;;;;;5090055;28;20067;-47
2022/11/29 03:53:13;;;;;;;22.02;10.40;;;3.90;99.90;;;;;;5091007;28;20044;-48
2022/11/29 03:56:00;;;;;;;19.17;11.15;;;3.90;99.90;;;;;;5072074;28;20107;-48
2022/11/29 03:58:46;;;;;;;21.90;10.90;;;3.90;99.90;;;;;;5071556;28;20107;-48
2022/11/29 04:01:24;;;;;;;21.70;11.45;;;3.90;99.90;;;;;;5078682;28;20071;-48
2022/11/29 04:04:09;;;;;;;20.42;10.68;;;3.90;99.90;;;;;;5083585;28;20511;-49
2022/11/29 04:07:10;;;;;;;22.65;10.02;;;3.90;99.90;;;;;;5092482;28;20072;-48
2022/11/29 04:10:14;;;;;;;22.25;9.93;;;3.90;99.90;;;;;;5092330;28;20044;-47
2022/11/29 04:13:02;;;;;;;21.27;10.50;;;3.90;99.90;;;;;;5085025;28;20067;-47
2022/11/29 04:16:01;;;;;;;17.90;9.80;;;3.90;99.90;;;;;;5075290;28;20509;-48
2022/11/29 04:19:10;;;;;;;15.63;9.93;;;3.90;99.90;;;;;;5071462;28;20044;-47
2022/11/29 04:22:13;;;;;;;22.60;10.27;;;3.90;99.90;;;;;;5049987;28;20052;-48
2022/11/29 04:24:49;;;;;;;21.13;9.77;;;3.90;99.90;;;;;;5077169;28;20043;-47
2022/11/29 04:27:37;;;;;;;27.30;10.57;;;3.90;99.90;;;;;;5082728;28;20074;-48
2022/11/29 04:30:07;;;;;;;14.95;9.48;;;3.90;99.90;;;;;;5092053;28;20131;-47
2022/11/29 04:36:27;;;;;;;20.83;10.70;;;3.90;99.90;;;;;;5040568;28;20524;-47
2022/11/29 04:39:10;;;;;;;21.80;10.95;;;3.90;99.90;;;;;;5051473;28;20076;-50
2022/11/29 04:41:56;;;;;;;18.85;10.20;;;3.90;99.90;;;;;;5039359;28;20087;-47
2022/11/29 04:44:46;;;;;;;20.73;10.35;;;3.90;99.90;;;;;;5031258;28;20046;-48
2022/11/29 04:47:54;;;;;;;21.50;10.85;;;3.90;99.90;;;;;;5030587;28;20041;-48
2022/11/29 04:50:47;;;;;;;21.30;10.88;;;3.90;99.90;;;;;;5033148;28;20382;-47
2022/11/29 04:53:38;;;;;;;19.15;10.43;;;3.90;99.90;;;;;;5032692;28;20080;-50
2022/11/29 04:56:27;;;;;;;19.23;10.45;;;3.90;99.90;;;;;;5035420;28;20072;-47
2022/11/29 04:59:00;;;;;;;20.10;10.77;;;4.00;99.90;;;;;;5036869;28;20041;-48
2022/11/29 05:01:49;;;;;;;17.90;10.48;;;4.00;99.90;;;;;;5029648;28;20124;-48
2022/11/29 05:04:50;;;;;;;22.75;10.38;;;4.00;99.90;;;;;;5030504;28;20049;-49
2022/11/29 05:08:11;;;;;;;20.67;10.75;;;4.00;99.90;;;;;;5026291;28;20114;-47
2022/11/29 05:10:43;;;;;;;26.98;11.15;;;4.00;99.90;;;;;;4970142;28;20057;-47
2022/11/29 05:13:19;;;;;;;22.67;10.70;;;4.00;99.90;;;;;;5028906;28;20084;-47
2022/11/29 05:16:19;;;;;;;23.92;11.57;;;4.00;99.90;;;;;;5037156;28;20421;-47
2022/11/29 05:19:20;;;;;;;35.42;11.55;;;4.00;99.90;;;;;;5049822;28;20079;-48
2022/11/29 05:22:02;;;;;;;22.17;10.98;;;4.00;99.90;;;;;;5047053;28;20037;-47
2022/11/29 05:24:44;;;;;;;22.75;10.77;;;3.90;99.90;;;;;;5039271;28;20506;-47
2022/11/29 05:27:23;;;;;;;23.17;10.57;;;3.90;99.90;;;;;;5044718;28;20464;-47
2022/11/29 05:30:06;;;;;;;;;;;3.90;99.90;;;;;;5034228;28;20076;-48
2022/11/29 05:32:56;;;;;;;25.23;11.18;;;3.90;99.90;;;;;;5030554;28;20340;-48
2022/11/29 05:35:48;;;;;;;25.35;10.95;;;3.90;99.90;;;;;;5032042;28;20073;-47
2022/11/29 05:38:29;;;;;;;19.58;12.13;;;4.00;99.90;;;;;;5040029;28;20509;-49
2022/11/29 05:41:22;;;;;;;25.50;12.95;;;4.00;99.90;;;;;;5039149;28;20095;-47
2022/11/29 05:43:51;;;;;;;24.35;13.00;;;4.00;99.90;;;;;;5034855;28;20498;-47
2022/11/29 05:46:28;;;;;;;24.23;12.98;;;4.00;99.90;;;;;;5043147;28;20064;-47
2022/11/29 05:49:04;;;;;;;23.92;13.48;;;3.90;99.90;;;;;;5033690;28;20071;-48
2022/11/29 05:51:43;;;;;;;24.77;13.35;;;4.00;99.90;;;;;;5033409;28;20073;-47
2022/11/29 05:54:45;;;;;;;24.50;12.80;;;4.00;99.90;;;;;;5042286;28;20477;-47
2022/11/29 05:57:25;;;;;;;28.42;11.98;;;4.00;99.90;;;;;;5042073;28;20054;-47
2022/11/29 05:59:54;;;;;;;24.52;12.70;;;4.00;99.90;;;;;;5033839;28;20092;-47
2022/11/29 06:02:31;;;;;;;33.10;14.48;;;4.00;99.90;;;;;;5040287;28;20084;-48
2022/11/29 06:05:17;;;;;;;29.17;14.87;;;4.00;99.90;;;;;;5033698;28;20050;-47
2022/11/29 06:08:11;;;;;;;28.48;14.32;;;4.00;99.90;;;;;;5044584;28;20064;-47
2022/11/29 06:10:42;;;;;;;31.38;15.48;;;4.00;99.90;;;;;;5047275;28;20071;-50
2022/11/29 06:13:32;;;;;;;29.20;13.80;;;4.00;99.90;;;;;;5044396;28;20557;-48
2022/11/29 06:16:06;;;;;;;26.55;13.43;;;4.00;99.90;;;;;;5045431;28;20068;-51
2022/11/29 06:18:45;;;;;;;29.48;12.88;;;4.00;99.90;;;;;;5045760;28;20041;-48
2022/11/29 06:21:37;;;;;;;28.77;11.98;;;4.00;99.90;;;;;;5046849;28;20071;-48
2022/11/29 06:24:26;;;;;;;22.85;11.55;;;4.00;99.90;;;;;;5052896;28;20073;-49
2022/11/29 06:27:18;;;;;;;23.23;12.05;;;4.00;99.90;;;;;;5052997;28;20116;-48
2022/11/29 06:30:06;;;;;;;22.27;12.43;;;4.00;99.90;;;;;;5052638;28;20549;-47
2022/11/29 06:32:41;;;;;;;22.88;11.95;;;4.00;99.90;;;;;;5036362;28;20091;-48
2022/11/29 06:35:33;;;;;;;24.83;11.30;;;4.00;99.90;;;;;;5035508;28;20057;-49
2022/11/29 06:38:19;;;;;;;27.02;13.25;;;4.00;99.90;;;;;;5004380;28;20131;-48
2022/11/29 06:40:46;;;;;;;25.70;12.02;;;4.00;99.90;;;;;;5035083;28;20128;-49
2022/11/29 06:43:13;;;;;;;33.10;13.65;;;4.00;99.90;;;;;;5046046;28;20049;-48
2022/11/29 06:45:50;;;;;;;26.05;11.68;;;4.00;99.90;;;;;;5073565;28;20076;-47
2022/11/29 06:48:23;;;;;;;25.58;12.85;;;4.00;99.90;;;;;;5073061;28;20381;-47
2022/11/29 06:51:23;;;;;;;26.35;12.55;;;4.00;99.90;;;;;;5045809;28;20029;-47
2022/11/29 06:54:05;;;;;;;26.15;12.55;;;4.00;99.90;;;;;;5038433;28;20065;-48
2022/11/29 06:56:39;;;;;;;32.05;14.85;;;4.00;99.90;;;;;;5033672;28;20038;-47
2022/11/29 06:59:12;;;;;;;24.02;12.35;;;4.00;99.90;;;;;;5042901;28;20061;-47
2022/11/29 07:02:00;;;;;;;27.90;12.35;;;4.10;99.90;;;;;;5065432;28;20116;-47
2022/11/29 07:04:29;;;;;;;27.50;12.57;;;4.10;99.90;;;;;;5032138;28;20500;-49
2022/11/29 07:06:57;;;;;;;30.10;13.15;;;4.10;99.90;;;;;;5037989;28;20065;-47
2022/11/29 07:09:32;;;;;;;28.42;13.25;;;4.10;99.90;;;;;;5052700;28;20112;-48
2022/11/29 07:11:59;;;;;;;26.95;13.48;;;4.20;99.90;;;;;;5039188;28;20049;-48
2022/11/29 07:14:26;;;;;;;27.48;11.90;;;4.20;99.90;;;;;;5039099;28;20111;-49
2022/11/29 07:17:29;;;;;;;25.65;11.95;;;4.20;99.90;;;;;;5052766;28;20068;-47
2022/11/29 07:20:11;;;;;;;25.77;12.90;;;4.20;99.90;;;;;;5052038;28;20080;-47
2022/11/29 07:22:43;;;;;;;23.77;12.32;;;4.20;99.90;;;;;;5050757;28;20083;-49
2022/11/29 07:25:27;;;;;;;26.50;12.18;;;4.20;99.90;;;;;;5040990;28;20042;-47
2022/11/29 07:28:13;;;;;;;29.27;12.90;;;4.20;99.90;;;;;;5031600;28;20038;-47
2022/11/29 07:31:03;;;;;;;28.42;12.15;;;4.20;99.90;;;;;;5035981;28;20033;-48
2022/11/29 07:33:40;;;;;;;24.13;12.73;;;4.20;99.90;;;;;;5042866;28;20045;-47
2022/11/29 07:36:17;;;;;;;21.65;9.88;;;4.20;99.90;;;;;;5051726;28;20110;-48
2022/11/29 07:39:03;;;;;;;26.00;12.65;;;4.30;99.90;;;;;;5051386;28;20067;-48
2022/11/29 07:41:42;;;;;;;23.25;12.50;;;4.30;99.90;;;;;;5032087;28;20502;-49
2022/11/29 07:44:18;;;;;;;31.98;13.45;;;4.30;99.90;;;;;;5032597;28;20102;-47
2022/11/29 07:46:45;;;;;;;29.08;13.55;;;4.30;99.90;;;;;;5049644;28;20068;-50
2022/11/29 07:49:12;;;;;;;25.88;9.63;;;4.40;99.90;;;;;;5055824;28;20059;-50
2022/11/29 07:51:39;;;;;;;28.17;14.38;;;4.30;99.90;;;;;;5057684;28;20067;-48
2022/11/29 07:54:05;;;;;;;36.35;15.23;;;4.40;99.90;;;;;;5051407;28;20072;-48
2022/11/29 07:56:32;;;;;;;39.55;15.13;;;4.40;99.90;;;;;;5051921;28;20071;-47
2022/11/29 07:58:59;;;;;;;23.73;11.90;;;4.40;99.90;;;;;;5052181;28;20661;-48
2022/11/29 08:01:26;;;;;;;39.70;15.52;;;4.50;99.90;;;;;;5050861;28;20068;-47
2022/11/29 08:03:53;;;;;;;25.52;11.10;;;4.50;99.90;;;;;;5047660;28;20123;-48
2022/11/29 08:06:24;;;;;;;33.33;15.80;;;4.50;99.90;;;;;;5033335;28;20124;-47
2022/11/29 08:08:51;;;;;;;38.72;17.05;;;4.50;99.90;;;;;;5031593;28;20127;-47
2022/11/29 08:11:18;;;;;;;36.95;17.73;;;4.50;99.90;;;;;;5031741;28;20134;-48
2022/11/29 08:13:44;;;;;;;39.35;17.77;;;4.60;99.90;;;;;;5042126;28;20119;-48
2022/11/29 08:16:16;;;;;;;43.90;20.48;;;4.50;99.90;;;;;;5034263;28;20575;-48
2022/11/29 08:18:43;;;;;;;40.97;18.42;;;4.60;99.90;;;;;;5031548;28;20049;-48
2022/11/29 08:21:10;;;;;;;35.22;18.02;;;4.60;99.90;;;;;;5034411;28;20049;-48
2022/11/29 08:23:37;;;;;;;32.42;16.23;;;4.60;99.90;;;;;;5055082;28;20069;-48
2022/11/29 08:26:03;;;;;;;33.78;17.17;;;4.60;99.90;;;;;;5042140;28;20049;-48
2022/11/29 08:28:30;;;;;;;30.20;16.42;;;4.60;99.90;;;;;;5042219;28;20068;-48
2022/11/29 08:31:08;;;;;;;31.17;17.33;;;4.70;99.90;;;;;;5045660;28;20543;-47
2022/11/29 08:33:37;;;;;;;30.40;14.68;;;4.70;99.90;;;;;;5031538;28;20073;-48
2022/11/29 08:36:09;;;;;;;20.05;10.70;;;4.80;99.90;;;;;;5039456;28;20045;-48
2022/11/29 08:38:36;;;;;;;12.63;7.60;;;4.80;99.90;;;;;;5044152;28;20072;-47
2022/11/29 08:41:04;;;;;;;9.15;6.18;;;4.80;99.90;;;;;;5040976;28;20100;-48
2022/11/29 08:43:32;;;;;;;9.45;6.22;;;4.90;99.90;;;;;;5031496;28;20075;-49
2022/11/29 08:45:58;;;;;;;12.25;6.60;;;4.90;99.90;;;;;;5035506;28;20079;-48
2022/11/29 08:48:26;;;;;;;17.48;8.98;;;4.90;99.90;;;;;;5033902;28;20090;-48
2022/11/29 08:50:54;;;;;;;15.23;8.02;;;4.90;99.90;;;;;;5030493;28;20473;-47
2022/11/29 08:56:12;;;;;;;13.70;6.70;;;4.90;99.90;;;;;;5046417;28;20061;-48
2022/11/29 08:58:59;;;;;;;12.07;6.57;;;5.00;99.90;;;;;;5063061;28;20053;-48
2022/11/29 09:01:25;;;;;;;11.25;6.10;;;5.00;99.90;;;;;;5056612;28;20033;-48
2022/11/29 09:03:58;;;;;;;40.00;17.05;;;5.00;99.90;;;;;;5031102;28;20253;-48
2022/11/29 09:06:27;;;;;;;34.17;14.88;;;5.10;99.90;;;;;;5030804;28;20099;-49
2022/11/29 09:08:57;;;;;;;26.73;14.48;;;5.10;99.90;;;;;;5031407;28;20084;-48
2022/11/29 09:11:26;;;;;;;18.08;10.27;;;5.10;99.90;;;;;;5046608;28;20045;-47
2022/11/29 09:13:59;;;;;;;19.75;10.10;;;5.10;99.90;;;;;;5037318;28;20072;-49
2022/11/29 09:16:28;;;;;;;12.98;6.82;;;5.20;99.90;;;;;;5034979;28;20033;-48
2022/11/29 09:18:56;;;;;;;11.73;7.18;;;5.10;99.90;;;;;;5035211;28;20103;-47
2022/11/29 09:21:25;;;;;;;15.07;8.75;;;5.20;99.90;;;;;;5054487;28;20077;-47
2022/11/29 09:23:57;;;;;;;12.15;7.20;;;5.20;99.90;;;;;;5045507;28;20087;-47
2022/11/29 09:26:28;;;;;;;8.77;5.40;;;5.30;99.90;;;;;;5035067;28;20490;-48
2022/11/29 09:28:57;;;;;;;7.63;4.68;;;5.30;99.90;;;;;;5043471;28;20053;-48
2022/11/29 09:31:23;;;;;;;9.63;5.13;;;5.30;99.90;;;;;;5054500;28;20086;-48
2022/11/29 09:33:50;;;;;;;11.38;4.95;;;5.30;99.90;;;;;;5053821;28;20068;-47
2022/11/29 09:36:18;;;;;;;7.82;4.80;;;5.30;99.90;;;;;;5054500;28;20452;-48
2022/11/29 09:38:50;;;;;;;8.95;5.22;;;5.30;99.90;;;;;;5039329;28;20069;-47
2022/11/29 09:41:35;;;;;;;9.15;5.22;;;5.40;99.90;;;;;;5034412;28;20128;-47
2022/11/29 09:44:11;;;;;;;9.23;4.90;;;5.40;99.90;;;;;;5035748;28;20045;-48
2022/11/29 09:47:22;;;;;;;8.43;4.75;;;5.40;99.90;;;;;;5034905;28;20069;-48
2022/11/29 09:50:00;;;;;;;7.88;4.05;;;5.40;99.90;;;;;;5033714;28;20088;-48
2022/11/29 09:52:45;;;;;;;8.10;4.05;;;5.40;99.90;;;;;;5032610;28;20541;-48
2022/11/29 09:55:34;;;;;;;8.77;4.55;;;5.40;99.90;;;;;;5036444;28;20045;-50
2022/11/29 09:58:02;;;;;;;;;;;5.50;99.90;;;;;;5034549;28;20076;-48
2022/11/29 10:00:34;;;;;;;7.28;4.82;;;5.50;99.90;;;;;;5034212;28;19947;-47
2022/11/29 10:03:10;;;;;;;8.32;4.03;;;5.50;99.90;;;;;;5035805;28;20073;-50
2022/11/29 10:05:43;;;;;;;6.15;3.80;;;5.50;99.90;;;;;;5034218;28;20132;-48
2022/11/29 10:08:46;;;;;;;6.75;3.20;;;5.50;99.90;;;;;;5033778;28;20045;-47
2022/11/29 10:11:20;;;;;;;8.70;3.95;;;5.50;99.90;;;;;;5033995;28;20072;-48
2022/11/29 10:13:59;;;;;;;4.97;2.83;;;5.50;99.90;;;;;;5036204;28;20068;-47
2022/11/29 10:16:40;;;;;;;6.68;3.88;;;5.50;99.90;;;;;;5033810;28;20076;-48
2022/11/29 10:19:20;;;;;;;9.50;4.55;;;5.60;99.90;;;;;;5033914;28;20129;-48
2022/11/29 10:22:02;;;;;;;8.57;3.85;;;5.70;99.90;;;;;;5038391;28;20069;-47
2022/11/29 10:24:31;;;;;;;5.78;3.22;;;5.70;99.90;;;;;;5033628;28;20060;-47
2022/11/29 10:26:58;;;;;;;7.28;3.78;;;5.70;99.90;;;;;;5033093;28;20065;-47
2022/11/29 10:29:25;;;;;;;5.40;3.05;;;5.70;99.90;;;;;;5035286;28;20084;-47
2022/11/29 10:31:55;;;;;;;5.40;3.60;;;5.70;99.90;;;;;;5033237;28;20107;-47
2022/11/29 10:34:24;;;;;;;6.68;4.18;;;5.60;99.90;;;;;;5063923;22;20059;-50
2022/11/29 10:36:58;;;;;;;11.80;6.70;;;5.70;99.90;;;;;;5091101;28;20063;-49
2022/11/29 10:39:29;;;;;;;10.02;6.57;;;5.80;99.90;;;;;;5092846;28;20079;-49
2022/11/29 10:42:01;;;;;;;10.75;5.72;;;5.80;99.90;;;;;;5085634;28;20100;-49
2022/11/29 10:44:30;;;;;;;16.20;7.25;;;5.80;99.90;;;;;;5076276;28;20124;-49
2022/11/29 10:47:00;;;;;;;9.55;4.80;;;5.90;99.90;;;;;;5093534;28;20396;-49
2022/11/29 10:49:34;;;;;;;8.15;4.97;;;5.90;99.90;;;;;;5092654;28;20081;-49
2022/11/29 10:52:01;;;;;;;9.07;4.95;;;5.80;99.90;;;;;;5093130;28;20400;-49
2022/11/29 10:54:41;;;;;;;8.77;4.60;;;5.90;99.90;;;;;;5075622;28;20043;-50
2022/11/29 10:57:14;;;;;;;9.70;4.63;;;5.90;99.90;;;;;;5093418;28;20051;-49
2022/11/29 10:59:56;;;;;;;8.40;5.30;;;5.90;99.90;;;;;;5092480;28;20044;-51
2022/11/29 11:02:23;;;;;;;10.77;7.47;;;5.90;99.90;;;;;;5091727;28;20053;-49
2022/11/29 11:04:50;;;;;;;8.07;5.63;;;5.90;99.90;;;;;;5092942;28;20044;-49
2022/11/29 11:07:34;;;;;;;8.20;4.55;;;5.90;99.90;;;;;;5095936;28;20048;-48
2022/11/29 11:10:04;;;;;;;6.38;4.15;;;5.70;99.90;;;;;;5089753;28;20049;-48
2022/11/29 11:12:33;;;;;;;7.03;4.68;;;5.60;99.90;;;;;;5080449;28;20466;-49
2022/11/29 11:15:27;;;;;;;13.85;8.20;;;5.60;99.90;;;;;;5092235;28;20547;-49
2022/11/29 11:17:59;;;;;;;12.00;8.25;;;5.60;99.90;;;;;;5072800;28;20044;-50
2022/11/29 11:20:28;;;;;;;9.77;6.45;;;5.60;99.90;;;;;;5072768;28;20178;-49
2022/11/29 11:23:02;;;;;;;9.80;5.88;;;5.60;99.90;;;;;;5086321;28;20431;-49
2022/11/29 11:25:34;;;;;;;6.38;4.72;;;5.50;99.90;;;;;;5092696;28;20048;-50
2022/11/29 11:28:21;;;;;;;6.43;4.20;;;5.50;99.90;;;;;;5088853;28;20069;-49
2022/11/29 11:31:01;;;;;;;5.43;3.78;;;5.50;99.90;;;;;;5087204;28;20079;-49
2022/11/29 11:33:31;;;;;;;8.07;4.95;;;5.50;99.90;;;;;;5082263;28;20038;-49
2022/11/29 11:36:07;;;;;;;6.30;4.20;;;5.50;99.90;;;;;;5088687;28;20032;-48
2022/11/29 11:38:55;;;;;;;6.15;4.25;;;5.60;99.90;;;;;;5091003;28;20075;-52
2022/11/29 11:41:21;;;;;;;6.40;3.67;;;5.70;99.90;;;;;;5092879;28;20045;-52
2022/11/29 11:43:56;;;;;;;5.35;3.30;;;5.70;99.90;;;;;;5076906;28;20107;-49
2022/11/29 11:46:43;;;;;;;8.80;4.35;;;5.80;99.90;;;;;;5089779;28;20036;-52
2022/11/29 11:49:23;;;;;;;6.22;3.97;;;5.80;99.90;;;;;;5081596;28;20515;-49
2022/11/29 11:51:50;;;;;;;7.32;3.78;;;5.80;99.90;;;;;;5091905;28;20070;-50
2022/11/29 11:54:17;;;;;;;8.75;4.72;;;5.80;99.90;;;;;;5083531;28;20040;-49
2022/11/29 11:56:44;;;;;;;9.30;6.18;;;5.90;99.90;;;;;;5070759;28;20473;-49
2022/11/29 11:59:19;;;;;;;6.35;3.78;;;6.00;99.90;;;;;;5071836;28;20068;-49
2022/11/29 12:01:46;;;;;;;3.85;3.00;;;6.00;99.90;;;;;;5071407;28;20120;-49
2022/11/29 12:04:20;;;;;;;4.78;3.35;;;6.00;99.90;;;;;;5077530;28;20083;-51
2022/11/29 12:06:56;;;;;;;6.57;3.90;;;5.90;99.90;;;;;;5092190;28;20067;-50
2022/11/29 12:10:10;;;;;;;6.28;3.40;;;5.90;99.90;;;;;;5091829;28;20067;-49
2022/11/29 12:12:40;;;;;;;6.25;3.13;;;5.90;99.90;;;;;;4989830;28;20507;-49
2022/11/29 12:15:17;;;;;;;4.90;3.20;;;5.90;99.90;;;;;;4972579;28;20562;-51
2022/11/29 12:17:51;;;;;;;7.35;3.97;;;5.90;99.90;;;;;;5047766;28;20056;-51
2022/11/29 12:20:30;;;;;;;7.50;3.20;;;5.90;99.90;;;;;;5088627;28;20124;-48
2022/11/29 12:23:05;;;;;;;5.60;3.60;;;5.90;99.90;;;;;;5091443;28;20068;-48
2022/11/29 12:25:49;;;;;;;4.75;2.80;;;5.90;99.90;;;;;;5090900;28;20075;-48
2022/11/29 12:28:17;;;;;;;6.00;3.85;;;5.90;99.90;;;;;;5090826;28;20046;-49
2022/11/29 12:30:56;;;;;;;6.30;4.30;;;5.90;99.90;;;;;;5084985;28;20051;-50
2022/11/29 12:33:26;;;;;;;4.70;3.50;;;5.90;99.90;;;;;;5091462;28;20392;-48
2022/11/29 12:36:23;;;;;;;7.05;3.97;;;5.90;99.90;;;;;;5091335;28;20078;-50
2022/11/29 12:39:24;;;;;;;11.35;4.55;;;5.90;99.90;;;;;;5088447;28;20066;-51
2022/11/29 12:42:20;;;;;;;9.93;5.05;;;6.00;99.90;;;;;;5059524;28;20044;-48
2022/11/29 12:45:16;;;;;;;9.05;4.30;;;6.00;99.90;;;;;;5041322;28;20281;-48
2022/11/29 12:48:04;;;;;;;6.38;4.07;;;6.00;99.90;;;;;;5043483;28;20536;-52
2022/11/29 12:50:37;;;;;;;6.05;3.90;;;6.10;99.90;;;;;;5079865;28;20064;-52
2022/11/29 12:53:32;;;;;;;9.38;3.75;;;6.10;99.90;;;;;;5090998;28;20073;-49
2022/11/29 12:56:09;;;;;;;5.20;3.20;;;6.10;99.90;;;;;;5091744;28;20124;-52
2022/11/29 12:58:36;;;;;;;9.82;4.05;;;6.10;99.90;;;;;;5087710;28;20109;-51
2022/11/29 13:01:20;;;;;;;8.13;4.05;;;6.10;99.90;;;;;;5094593;28;20048;-49
2022/11/29 13:04:12;;;;;;;7.45;3.80;;;6.00;99.90;;;;;;5081780;28;20518;-51
2022/11/29 13:06:44;;;;;;;21.70;6.22;;;6.00;99.90;;;;;;5098185;28;20097;-49
2022/11/29 13:09:42;;;;;;;15.27;4.82;;;6.00;99.90;;;;;;5063234;28;20040;-49
2022/11/29 13:12:17;;;;;;;8.73;4.78;;;6.10;99.90;;;;;;5083588;28;20036;-51
2022/11/29 13:15:07;;;;;;;14.48;5.78;;;6.10;99.90;;;;;;5086278;28;20093;-49
2022/11/29 13:17:53;;;;;;;14.23;4.93;;;6.00;99.90;;;;;;5082643;28;20032;-52
2022/11/29 13:20:59;;;;;;;11.35;5.45;;;6.00;99.90;;;;;;5078967;28;20075;-50
2022/11/29 13:23:37;;;;;;;13.40;5.63;;;5.90;99.90;;;;;;5089778;28;20040;-49
2022/11/29 13:26:25;;;;;;;13.30;4.75;;;5.90;99.90;;;;;;5090824;28;20139;-51
2022/11/29 13:28:53;;;;;;;8.20;3.90;;;5.90;99.90;;;;;;5078187;28;20076;-51
2022/11/29 13:31:22;;;;;;;7.90;5.10;;;5.80;99.90;;;;;;5080929;28;20078;-50
2022/11/29 13:33:49;;;;;;;8.88;4.70;;;5.90;99.90;;;;;;5090374;28;20032;-51
2022/11/29 13:36:35;;;;;;;11.05;6.18;;;5.90;99.90;;;;;;5090782;28;20037;-49
2022/11/29 13:39:29;;;;;;;5.22;3.72;;;6.00;99.90;;;;;;5070933;28;20079;-49
2022/11/29 13:42:10;;;;;;;7.28;4.30;;;6.00;99.90;;;;;;5080382;28;20047;-51
2022/11/29 13:44:43;;;;;;;7.75;4.63;;;6.00;99.90;;;;;;5078627;28;20485;-52
2022/11/29 13:47:13;;;;;;;9.95;5.50;;;6.00;99.90;;;;;;5087848;28;20048;-52
2022/11/29 13:49:52;;;;;;;9.18;4.47;;;6.00;99.90;;;;;;5065783;28;20074;-48